createdAt,value
2023-02-14T00:01:20.534Z,-0.73
2023-02-14T00:03:48.909Z,-0.69
2023-02-14T00:06:16.433Z,-0.67
2023-02-14T00:08:44.444Z,-0.67
2023-02-14T00:11:13.408Z,-0.68
2023-02-14T00:13:43.547Z,-0.70
2023-02-14T00:16:11.207Z,-0.72
2023-02-14T00:18:57.132Z,-0.72
2023-02-14T00:21:24.461Z,-0.75
2023-02-14T00:23:51.833Z,-0.77
2023-02-14T00:26:19.337Z,-0.80
2023-02-14T00:28:47.939Z,-0.81
2023-02-14T00:31:15.434Z,-0.82
2023-02-14T00:33:43.115Z,-0.80
2023-02-14T00:36:11.016Z,-0.77
2023-02-14T00:38:38.227Z,-0.74
2023-02-14T00:41:06.000Z,-0.73
2023-02-14T00:43:36.385Z,-0.71
2023-02-14T00:46:04.112Z,-0.68
2023-02-14T00:48:31.896Z,-0.65
2023-02-14T00:50:59.758Z,-0.62
2023-02-14T00:53:27.710Z,-0.58
2023-02-14T00:55:55.194Z,-0.57
2023-02-14T00:58:22.752Z,-0.59
2023-02-14T01:00:50.394Z,-0.60
2023-02-14T01:03:18.366Z,-0.59
2023-02-14T01:05:47.709Z,-0.60
2023-02-14T01:08:15.243Z,-0.61
2023-02-14T01:10:43.203Z,-0.59
2023-02-14T01:13:11.448Z,-0.61
2023-02-14T01:15:44.714Z,-0.60
2023-02-14T01:18:12.842Z,-0.59
2023-02-14T01:20:41.029Z,-0.60
2023-02-14T01:23:08.871Z,-0.59
2023-02-14T01:25:37.670Z,-0.58
2023-02-14T01:28:05.641Z,-0.62
2023-02-14T01:30:33.596Z,-0.63
2023-02-14T01:33:01.002Z,-0.62
2023-02-14T01:35:28.464Z,-0.61
2023-02-14T01:37:56.079Z,-0.61
2023-02-14T01:40:23.631Z,-0.62
2023-02-14T01:42:51.154Z,-0.59
2023-02-14T01:45:22.114Z,-0.59
2023-02-14T01:47:51.839Z,-0.58
2023-02-14T01:50:31.517Z,-0.56
2023-02-14T01:53:02.390Z,-0.56
2023-02-14T01:55:35.978Z,-0.55
2023-02-14T01:58:12.578Z,-0.53
2023-02-14T02:00:59.707Z,-0.54
2023-02-14T02:03:37.202Z,-0.52
2023-02-14T02:06:16.902Z,-0.52
2023-02-14T02:08:48.102Z,-0.52
2023-02-14T02:11:15.821Z,-0.51
2023-02-14T02:13:43.191Z,-0.53
2023-02-14T02:16:20.887Z,-0.56
2023-02-14T02:19:07.310Z,-0.54
2023-02-14T02:22:03.877Z,-0.52
2023-02-14T02:24:54.317Z,-0.51
2023-02-14T02:27:42.217Z,-0.51
2023-02-14T02:30:15.960Z,-0.51
2023-02-14T02:33:18.680Z,-0.50
2023-02-14T02:36:01.863Z,-0.51
2023-02-14T02:38:49.924Z,-0.48
2023-02-14T02:41:27.138Z,-0.47
2023-02-14T02:44:10.043Z,-0.46
2023-02-14T02:46:47.008Z,-0.43
2023-02-14T02:49:39.416Z,-0.41
2023-02-14T02:52:30.403Z,-0.41
2023-02-14T02:55:01.589Z,-0.43
2023-02-14T02:57:35.479Z,-0.52
2023-02-14T03:00:06.016Z,-0.62
2023-02-14T03:03:00.024Z,-0.67
2023-02-14T03:05:29.673Z,-0.73
2023-02-14T03:07:57.242Z,-0.73
2023-02-14T03:10:27.551Z,-0.74
2023-02-14T03:13:27.109Z,-0.75
2023-02-14T03:16:04.177Z,-0.78
2023-02-14T03:18:56.249Z,-0.75
2023-02-14T03:21:30.460Z,-0.75
2023-02-14T03:24:01.842Z,-0.78
2023-02-14T03:26:37.956Z,-0.77
2023-02-14T03:29:24.164Z,-0.75
2023-02-14T03:32:13.719Z,-0.74
2023-02-14T03:34:50.744Z,-0.77
2023-02-14T03:37:24.786Z,-0.77
2023-02-14T03:40:01.845Z,-0.76
2023-02-14T03:42:32.437Z,-0.78
2023-02-14T03:45:01.040Z,-0.80
2023-02-14T03:47:30.502Z,-0.76
2023-02-14T03:50:14.022Z,-0.75
2023-02-14T03:52:42.715Z,-0.74
2023-02-14T03:55:11.220Z,-0.74
2023-02-14T03:57:47.870Z,-0.74
2023-02-14T04:00:17.794Z,-0.74
2023-02-14T04:02:51.827Z,-0.71
2023-02-14T04:05:23.030Z,-0.70
2023-02-14T04:07:53.279Z,-0.67
2023-02-14T04:10:21.248Z,-0.65
2023-02-14T04:12:48.992Z,-0.62
2023-02-14T04:15:16.795Z,-0.62
2023-02-14T04:18:02.464Z,-0.61
2023-02-14T04:20:30.160Z,-0.59
2023-02-14T04:22:57.689Z,-0.58
2023-02-14T04:25:25.767Z,-0.58
2023-02-14T04:27:53.364Z,-0.56
2023-02-14T04:30:22.351Z,-0.59
2023-02-14T04:32:49.951Z,-0.62
2023-02-14T04:35:17.574Z,-0.67
2023-02-14T04:37:45.275Z,-0.73
2023-02-14T04:40:15.132Z,-0.74
2023-02-14T04:42:44.406Z,-0.75
2023-02-14T04:45:12.142Z,-0.77
2023-02-14T04:47:39.903Z,-0.84
2023-02-14T04:50:08.150Z,-0.89
2023-02-14T04:52:35.707Z,-0.90
2023-02-14T04:55:03.992Z,-0.88
2023-02-14T04:57:31.879Z,-0.88
2023-02-14T04:59:59.470Z,-0.85
2023-02-14T05:02:26.824Z,-0.83
2023-02-14T05:04:54.581Z,-0.79
2023-02-14T05:07:22.379Z,-0.76
2023-02-14T05:09:50.144Z,-0.73
2023-02-14T05:12:17.578Z,-0.68
2023-02-14T05:14:45.507Z,-0.64
2023-02-14T05:17:12.979Z,-0.62
2023-02-14T05:19:40.498Z,-0.58
2023-02-14T05:22:07.867Z,-0.55
2023-02-14T05:24:36.751Z,-0.52
2023-02-14T05:27:04.334Z,-0.51
2023-02-14T05:29:31.916Z,-0.48
2023-02-14T05:31:59.367Z,-0.44
2023-02-14T05:34:27.069Z,-0.43
2023-02-14T05:36:54.445Z,-0.42
2023-02-14T05:39:21.610Z,-0.41
2023-02-14T05:41:49.449Z,-0.42
2023-02-14T05:44:17.068Z,-0.43
2023-02-14T05:46:44.700Z,-0.42
2023-02-14T05:49:12.110Z,-0.43
2023-02-14T05:51:39.345Z,-0.43
2023-02-14T05:54:06.653Z,-0.43
2023-02-14T05:56:34.284Z,-0.43
2023-02-14T05:59:01.787Z,-0.44
2023-02-14T06:01:29.329Z,-0.44
2023-02-14T06:03:56.541Z,-0.41
2023-02-14T06:06:24.037Z,-0.39
2023-02-14T06:08:52.580Z,-0.39
2023-02-14T06:11:19.999Z,-0.37
2023-02-14T06:13:47.419Z,-0.35
2023-02-14T06:16:14.645Z,-0.33
2023-02-14T06:18:42.402Z,-0.32
2023-02-14T06:21:09.824Z,-0.31
2023-02-14T06:23:37.146Z,-0.28
2023-02-14T06:26:04.621Z,-0.24
2023-02-14T06:28:32.006Z,-0.19
2023-02-14T06:31:00.032Z,-0.17
2023-02-14T06:33:27.825Z,-0.14
2023-02-14T06:35:55.349Z,-0.13
2023-02-14T06:38:22.781Z,-0.09
2023-02-14T06:40:50.237Z,-0.06
2023-02-14T06:43:17.245Z,-0.04
2023-02-14T06:45:46.338Z,-0.03
2023-02-14T06:48:13.820Z,0.00
2023-02-14T06:50:41.250Z,0.04
2023-02-14T06:53:08.818Z,0.07
2023-02-14T06:55:38.054Z,0.08
2023-02-14T06:58:05.461Z,0.11
2023-02-14T07:00:32.836Z,0.13
2023-02-14T07:03:00.471Z,0.16
2023-02-14T07:05:27.967Z,0.18
2023-02-14T07:07:55.449Z,0.22
2023-02-14T07:10:22.704Z,0.25
2023-02-14T07:12:50.118Z,0.27
2023-02-14T07:15:17.516Z,0.25
2023-02-14T07:17:45.058Z,0.23
2023-02-14T07:20:13.220Z,0.18
2023-02-14T07:22:40.769Z,0.12
2023-02-14T07:25:08.754Z,0.08
2023-02-14T07:27:36.231Z,0.07
2023-02-14T07:30:05.820Z,0.05
2023-02-14T07:32:34.478Z,0.06
2023-02-14T07:35:05.020Z,0.09
2023-02-14T07:37:33.036Z,0.14
2023-02-14T07:40:00.894Z,0.18
2023-02-14T07:42:31.037Z,0.23
2023-02-14T07:44:58.390Z,0.28
2023-02-14T07:47:26.115Z,0.35
2023-02-14T07:49:53.516Z,0.39
2023-02-14T07:52:21.280Z,0.46
2023-02-14T07:54:48.627Z,0.54
2023-02-14T07:57:17.100Z,0.62
2023-02-14T07:59:44.488Z,0.69
2023-02-14T08:02:18.596Z,0.76
2023-02-14T08:04:46.318Z,0.84
2023-02-14T08:07:14.614Z,0.91
2023-02-14T08:09:42.302Z,0.92
2023-02-14T08:12:28.427Z,0.95
2023-02-14T08:14:57.581Z,1.00
2023-02-14T08:17:25.324Z,1.07
2023-02-14T08:19:53.306Z,1.13
2023-02-14T08:22:24.935Z,1.18
2023-02-14T08:24:52.806Z,1.26
2023-02-14T08:27:20.318Z,1.33
2023-02-14T08:29:47.921Z,1.40
2023-02-14T08:32:15.675Z,1.51
2023-02-14T08:34:44.592Z,1.61
2023-02-14T08:37:12.319Z,1.70
2023-02-14T08:39:39.990Z,1.79
2023-02-14T08:42:07.744Z,1.89
2023-02-14T08:44:35.392Z,2.00
2023-02-14T08:47:03.218Z,2.10
2023-02-14T08:49:30.679Z,2.17
2023-02-14T08:51:58.085Z,2.23
2023-02-14T08:54:25.509Z,2.31
2023-02-14T08:56:52.747Z,2.41
2023-02-14T08:59:20.244Z,2.45
2023-02-14T09:01:47.824Z,2.55
2023-02-14T09:04:15.153Z,2.58
2023-02-14T09:06:45.925Z,2.68
2023-02-14T09:09:19.036Z,2.76
2023-02-14T09:11:46.654Z,2.95
2023-02-14T09:14:15.291Z,3.17
2023-02-14T09:16:42.934Z,3.47
2023-02-14T09:19:10.472Z,3.80
2023-02-14T09:21:38.601Z,3.99
2023-02-14T09:24:06.726Z,4.04
2023-02-14T09:26:36.422Z,4.10
2023-02-14T09:29:04.041Z,4.30
2023-02-14T09:31:31.603Z,4.40
2023-02-14T09:33:59.108Z,4.38
2023-02-14T09:36:28.731Z,4.39
2023-02-14T09:38:56.411Z,4.58
2023-02-14T09:41:45.886Z,4.64
2023-02-14T09:44:27.462Z,4.81
2023-02-14T09:46:57.167Z,5.01
2023-02-14T09:49:31.248Z,5.30
2023-02-14T09:52:01.456Z,5.45
2023-02-14T09:54:29.560Z,5.66
2023-02-14T09:57:15.770Z,5.80
2023-02-14T09:59:58.966Z,5.74
2023-02-14T10:02:50.893Z,5.74
2023-02-14T10:05:22.885Z,5.64
2023-02-14T10:08:07.343Z,5.34
2023-02-14T10:10:41.219Z,5.32
2023-02-14T10:13:18.295Z,5.42
2023-02-14T10:15:48.587Z,5.45
2023-02-14T10:18:22.852Z,5.62
2023-02-14T10:20:58.969Z,5.66
2023-02-14T10:23:41.001Z,5.62
2023-02-14T10:26:14.662Z,5.71
2023-02-14T10:28:45.680Z,5.84
2023-02-14T10:31:27.535Z,5.93
2023-02-14T10:33:58.143Z,5.85
2023-02-14T10:36:43.675Z,5.71
2023-02-14T10:39:29.640Z,5.60
2023-02-14T10:42:31.369Z,5.49
2023-02-14T10:45:17.416Z,5.42
2023-02-14T10:47:49.582Z,5.64
2023-02-14T10:50:26.251Z,5.90
2023-02-14T10:53:04.135Z,6.05
2023-02-14T10:55:35.217Z,6.01
2023-02-14T10:58:04.219Z,5.83
2023-02-14T11:00:34.503Z,5.68
2023-02-14T11:03:05.344Z,5.59
2023-02-14T11:05:36.183Z,5.56
2023-02-14T11:08:15.261Z,5.60
2023-02-14T11:10:43.094Z,5.39
2023-02-14T11:13:32.232Z,5.29
2023-02-14T11:16:03.532Z,5.19
2023-02-14T11:18:39.053Z,5.12
2023-02-14T11:21:13.535Z,5.13
2023-02-14T11:23:43.589Z,5.16
2023-02-14T11:26:24.093Z,5.14
2023-02-14T11:29:00.024Z,5.11
2023-02-14T11:31:35.651Z,5.12
2023-02-14T11:34:06.023Z,5.18
2023-02-14T11:36:37.563Z,5.20
2023-02-14T11:39:32.040Z,5.22
2023-02-14T11:42:04.985Z,5.17
2023-02-14T11:44:36.136Z,5.10
2023-02-14T11:47:26.563Z,5.08
2023-02-14T11:50:05.295Z,5.05
2023-02-14T11:52:36.375Z,5.04
2023-02-14T11:55:05.313Z,5.04
2023-02-14T11:57:35.498Z,5.01
2023-02-14T12:00:16.967Z,5.04
2023-02-14T12:02:46.498Z,5.05
2023-02-14T12:05:28.144Z,4.98
2023-02-14T12:07:58.053Z,4.91
2023-02-14T12:10:36.572Z,4.92
2023-02-14T12:13:14.123Z,4.89
2023-02-14T12:15:48.330Z,4.89
2023-02-14T12:18:31.264Z,4.86
2023-02-14T12:21:17.624Z,4.84
2023-02-14T12:23:49.220Z,4.89
2023-02-14T12:26:35.577Z,4.88
2023-02-14T12:29:30.890Z,4.85
2023-02-14T12:32:01.766Z,4.83
2023-02-14T12:34:29.869Z,4.79
2023-02-14T12:37:06.625Z,4.75
2023-02-14T12:39:49.844Z,4.72
2023-02-14T12:42:35.715Z,4.67
2023-02-14T12:45:21.667Z,4.65
2023-02-14T12:48:16.198Z,4.63
2023-02-14T12:50:46.809Z,4.62
2023-02-14T12:53:27.257Z,4.56
2023-02-14T12:56:23.828Z,4.47
2023-02-14T12:58:55.681Z,4.41
2023-02-14T13:01:46.619Z,4.36
2023-02-14T13:04:41.068Z,4.35
2023-02-14T13:07:14.706Z,4.32
2023-02-14T13:09:45.981Z,4.32
2023-02-14T13:12:48.946Z,4.28
2023-02-14T13:15:35.068Z,4.27
2023-02-14T13:18:12.303Z,4.24
2023-02-14T13:20:49.392Z,4.21
2023-02-14T13:23:20.332Z,4.21
2023-02-14T13:25:51.313Z,4.21
2023-02-14T13:28:20.081Z,4.18
2023-02-14T13:30:47.798Z,4.14
2023-02-14T13:33:28.200Z,4.11
2023-02-14T13:35:59.141Z,4.06
2023-02-14T13:38:27.275Z,4.05
2023-02-14T13:40:56.525Z,4.05
2023-02-14T13:43:54.355Z,4.08
2023-02-14T13:46:37.453Z,4.07
2023-02-14T13:49:32.853Z,4.08
2023-02-14T13:52:03.227Z,4.07
2023-02-14T13:54:45.490Z,4.06
2023-02-14T13:57:35.880Z,4.04
2023-02-14T14:00:23.103Z,4.04
2023-02-14T14:02:53.258Z,4.01
2023-02-14T14:05:37.579Z,3.98
2023-02-14T14:08:23.600Z,3.95
2023-02-14T14:10:53.243Z,3.89
2023-02-14T14:13:44.388Z,3.82
2023-02-14T14:16:32.906Z,3.77
2023-02-14T14:19:18.891Z,3.75
2023-02-14T14:22:09.700Z,3.72
2023-02-14T14:24:38.947Z,3.70
2023-02-14T14:27:24.501Z,3.67
2023-02-14T14:29:55.628Z,3.60
2023-02-14T14:32:34.873Z,3.58
2023-02-14T14:35:06.286Z,3.58
2023-02-14T14:37:36.588Z,3.59
2023-02-14T14:40:06.199Z,3.59
2023-02-14T14:42:39.564Z,3.57
2023-02-14T14:45:11.120Z,3.53
2023-02-14T14:47:41.593Z,3.52
2023-02-14T14:50:15.687Z,3.52
2023-02-14T14:52:48.852Z,3.52
2023-02-14T14:55:19.704Z,3.51
2023-02-14T14:57:53.153Z,3.48
2023-02-14T15:00:25.944Z,3.48
2023-02-14T15:02:59.774Z,3.43
2023-02-14T15:05:32.145Z,3.37
2023-02-14T15:08:19.660Z,3.31
2023-02-14T15:10:51.868Z,3.28
2023-02-14T15:13:37.557Z,3.28
2023-02-14T15:16:05.425Z,3.27
2023-02-14T15:18:32.986Z,3.29
2023-02-14T15:21:01.489Z,3.28
2023-02-14T15:23:28.867Z,3.27
2023-02-14T15:25:56.333Z,3.24
2023-02-14T15:28:32.538Z,3.18
2023-02-14T15:31:04.234Z,3.15
2023-02-14T15:33:32.831Z,3.11
2023-02-14T15:36:06.182Z,3.08
2023-02-14T15:38:39.174Z,3.04
2023-02-14T15:41:07.485Z,3.03
2023-02-14T15:43:40.719Z,3.01
2023-02-14T15:46:34.104Z,2.98
2023-02-14T15:49:26.759Z,2.96
2023-02-14T15:51:57.054Z,2.93
2023-02-14T15:54:38.227Z,2.91
2023-02-14T15:57:07.600Z,2.90
2023-02-14T15:59:36.353Z,2.87
2023-02-14T16:02:19.458Z,2.83
2023-02-14T16:04:46.954Z,2.84
2023-02-14T16:07:27.875Z,2.82
2023-02-14T16:10:23.858Z,2.78
2023-02-14T16:12:57.642Z,2.74
2023-02-14T16:15:28.071Z,2.70
2023-02-14T16:17:55.788Z,2.69
2023-02-14T16:20:37.549Z,2.67
2023-02-14T16:23:23.802Z,2.68
2023-02-14T16:25:51.720Z,2.63
2023-02-14T16:28:19.355Z,2.62
2023-02-14T16:30:50.588Z,2.59
2023-02-14T16:33:32.231Z,2.56
2023-02-14T16:36:10.197Z,2.54
2023-02-14T16:38:43.242Z,2.52
2023-02-14T16:41:20.507Z,2.52
2023-02-14T16:43:50.839Z,2.53
2023-02-14T16:46:23.382Z,2.54
2023-02-14T16:48:51.707Z,2.55
2023-02-14T16:51:21.097Z,2.56
2023-02-14T16:53:49.007Z,2.55
2023-02-14T16:56:22.991Z,2.56
2023-02-14T16:58:53.628Z,2.55
2023-02-14T17:01:25.256Z,2.54
2023-02-14T17:03:57.309Z,2.50
2023-02-14T17:06:29.837Z,2.48
2023-02-14T17:09:00.764Z,2.47
2023-02-14T17:11:33.372Z,2.45
2023-02-14T17:14:02.178Z,2.45
2023-02-14T17:16:30.764Z,2.44
2023-02-14T17:18:59.204Z,2.42
2023-02-14T17:21:26.915Z,2.39
2023-02-14T17:23:56.502Z,2.38
2023-02-14T17:26:24.279Z,2.35
2023-02-14T17:28:51.708Z,2.33
2023-02-14T17:31:19.913Z,2.30
2023-02-14T17:33:48.122Z,2.29
2023-02-14T17:36:16.181Z,2.28
2023-02-14T17:38:43.574Z,2.27
2023-02-14T17:41:13.644Z,2.26
2023-02-14T17:43:40.977Z,2.24
2023-02-14T17:46:08.403Z,2.21
2023-02-14T17:48:35.727Z,2.18
2023-02-14T17:51:05.637Z,2.20
2023-02-14T17:53:33.592Z,2.19
2023-02-14T17:56:08.123Z,2.18
2023-02-14T17:58:35.903Z,2.17
2023-02-14T18:01:08.889Z,2.15
2023-02-14T18:03:36.358Z,2.15
2023-02-14T18:06:04.811Z,2.16
2023-02-14T18:08:35.753Z,2.13
2023-02-14T18:11:09.774Z,2.13
2023-02-14T18:13:39.211Z,2.13
2023-02-14T18:16:09.052Z,2.13
2023-02-14T18:18:37.099Z,2.16
2023-02-14T18:21:07.504Z,2.14
2023-02-14T18:23:35.375Z,2.16
2023-02-14T18:26:05.094Z,2.19
2023-02-14T18:28:33.874Z,2.19
2023-02-14T18:31:08.238Z,2.20
2023-02-14T18:33:36.479Z,2.17
2023-02-14T18:36:07.768Z,2.17
2023-02-14T18:38:35.544Z,2.15
2023-02-14T18:41:05.192Z,2.13
2023-02-14T18:43:32.747Z,2.13
2023-02-14T18:46:05.741Z,2.11
2023-02-14T18:48:34.055Z,2.08
2023-02-14T18:51:08.728Z,2.05
2023-02-14T18:53:38.943Z,2.05
2023-02-14T18:56:12.464Z,2.07
2023-02-14T18:58:41.530Z,2.07
2023-02-14T19:01:11.431Z,2.09
2023-02-14T19:03:40.614Z,2.10
2023-02-14T19:06:08.992Z,2.11
2023-02-14T19:08:38.041Z,2.11
2023-02-14T19:11:22.990Z,2.11
2023-02-14T19:13:56.148Z,2.14
2023-02-14T19:16:27.965Z,2.14
2023-02-14T19:18:55.656Z,2.16
2023-02-14T19:21:25.251Z,2.15
2023-02-14T19:23:55.967Z,2.16
2023-02-14T19:26:29.145Z,2.18
2023-02-14T19:28:59.411Z,2.21
2023-02-14T19:31:27.553Z,2.23
2023-02-14T19:33:55.315Z,2.23
2023-02-14T19:36:23.694Z,2.25
2023-02-14T19:38:53.308Z,2.26
2023-02-14T19:41:26.461Z,2.28
2023-02-14T19:43:58.079Z,2.30
2023-02-14T19:46:27.813Z,2.32
2023-02-14T19:48:56.642Z,2.35
2023-02-14T19:51:27.342Z,2.39
2023-02-14T19:53:56.161Z,2.39
2023-02-14T19:56:26.267Z,2.41
2023-02-14T19:58:58.195Z,2.45
2023-02-14T20:01:32.707Z,2.47
2023-02-14T20:04:00.881Z,2.52
2023-02-14T20:06:29.784Z,2.55
2023-02-14T20:08:57.699Z,2.54
2023-02-14T20:11:36.535Z,2.55
2023-02-14T20:14:04.270Z,2.56
2023-02-14T20:16:33.174Z,2.57
2023-02-14T20:19:01.701Z,2.57
2023-02-14T20:21:29.221Z,2.58
2023-02-14T20:24:00.248Z,2.59
2023-02-14T20:26:32.020Z,2.59
2023-02-14T20:29:02.560Z,2.59
2023-02-14T20:31:31.436Z,2.60
2023-02-14T20:33:59.035Z,2.60
2023-02-14T20:36:26.909Z,2.59
2023-02-14T20:38:59.886Z,2.59
2023-02-14T20:41:27.831Z,2.59
2023-02-14T20:43:55.804Z,2.54
2023-02-14T20:46:23.407Z,2.52
2023-02-14T20:48:53.568Z,2.52
2023-02-14T20:51:21.989Z,2.52
2023-02-14T20:53:51.003Z,2.51
2023-02-14T20:56:18.889Z,2.50
2023-02-14T20:58:46.261Z,2.51
2023-02-14T21:01:16.978Z,2.52
2023-02-14T21:03:47.303Z,2.54
2023-02-14T21:06:15.018Z,2.54
2023-02-14T21:08:42.902Z,2.54
2023-02-14T21:11:12.535Z,2.53
2023-02-14T21:13:39.926Z,2.49
2023-02-14T21:16:10.258Z,2.50
2023-02-14T21:18:38.123Z,2.47
2023-02-14T21:21:13.255Z,2.45
2023-02-14T21:23:41.249Z,2.42
2023-02-14T21:26:09.722Z,2.43
2023-02-14T21:28:37.279Z,2.41
2023-02-14T21:31:07.336Z,2.41
2023-02-14T21:33:35.051Z,2.41
2023-02-14T21:36:14.014Z,2.39
2023-02-14T21:38:41.959Z,2.38
2023-02-14T21:41:12.093Z,2.36
2023-02-14T21:43:41.315Z,2.32
2023-02-14T21:46:11.049Z,2.28
2023-02-14T21:48:57.467Z,2.26
2023-02-14T21:51:25.073Z,2.23
2023-02-14T21:53:52.865Z,2.18
2023-02-14T21:56:21.553Z,2.12
2023-02-14T21:58:50.440Z,2.12
2023-02-14T22:01:20.964Z,2.08
2023-02-14T22:03:48.686Z,2.06
2023-02-14T22:06:16.452Z,2.05
2023-02-14T22:08:44.063Z,2.05
2023-02-14T22:11:13.967Z,2.04
2023-02-14T22:13:41.669Z,2.00
2023-02-14T22:16:11.837Z,2.00
2023-02-14T22:18:39.861Z,1.99
2023-02-14T22:21:09.624Z,1.98
2023-02-14T22:23:37.685Z,1.99
2023-02-14T22:26:25.442Z,1.98
2023-02-14T22:28:56.375Z,1.95
2023-02-14T22:31:24.896Z,1.95
2023-02-14T22:33:52.511Z,1.90
2023-02-14T22:36:19.873Z,1.87
2023-02-14T22:38:47.401Z,1.85
2023-02-14T22:41:18.273Z,1.85
2023-02-14T22:43:46.180Z,1.84
2023-02-14T22:46:16.550Z,1.83
2023-02-14T22:48:44.091Z,1.82
2023-02-14T22:51:20.325Z,1.78
2023-02-14T22:53:49.171Z,1.78
2023-02-14T22:56:22.777Z,1.78
2023-02-14T22:58:54.738Z,1.77
2023-02-14T23:01:23.202Z,1.76
2023-02-14T23:03:56.067Z,1.77
2023-02-14T23:06:24.794Z,1.77
2023-02-14T23:08:52.980Z,1.77
2023-02-14T23:11:22.887Z,1.77
2023-02-14T23:14:08.569Z,1.78
2023-02-14T23:16:54.401Z,1.78
2023-02-14T23:19:41.963Z,1.79
2023-02-14T23:22:21.042Z,1.79
2023-02-14T23:24:49.913Z,1.80
2023-02-14T23:27:22.598Z,1.80
2023-02-14T23:29:50.150Z,1.81
2023-02-14T23:32:17.657Z,1.81
2023-02-14T23:34:45.285Z,1.81
2023-02-14T23:37:13.192Z,1.82
2023-02-14T23:39:40.997Z,1.81
2023-02-14T23:42:11.801Z,1.83
2023-02-14T23:44:39.432Z,1.82
2023-02-14T23:47:08.089Z,1.82
2023-02-14T23:49:37.188Z,1.83
2023-02-14T23:52:06.527Z,1.82
2023-02-14T23:54:34.831Z,1.83
2023-02-14T23:57:02.963Z,1.82
2023-02-14T23:59:30.509Z,1.82
